Flight Track Log - Related Links

Times and Time Zones

All times are in EDT time to prevent confusion due to time zone crossing. See the N629SA flight status page for this flight to view local times or setup timezone preferences in your user account.

Time Position Orientation Groundspeed Altitude Reporting Facility
EDT Latitude Longitude Course Direction KTS MPH feet Rate Location/Type
Tue 12:47:33 29.1964 -81.0206 61° Northeast 88 101 1,700  Level Jacksonville Center
Tue 12:48:34 29.1856 -80.9922 114° Southeast 108 124 2,800 934 Climbing Jacksonville Center
Tue 12:49:35 29.1542 -80.9739 153° Southeast 136 157 3,600 931 Climbing Jacksonville Center
Tue 12:50:30 29.1228 -80.9719 177° South 126 145 4,600 783 Climbing Jacksonville Center
Tue 12:52:39 29.0833 -81.0500 240° Southwest 158 182 6,000 442 Climbing Orlando TRACON
Tue 12:53:40 29.0667 -81.1000 249° West 156 180 6,000  Level Orlando TRACON
Tue 12:54:46 29.0500 -81.1500 249° West 159 183 6,000  Level Orlando TRACON
Tue 12:55:40 29.0500 -81.1833 270° West 156 180 6,000  Level Orlando TRACON
Tue 12:56:40 29.0333 -81.2333 249° West 159 183 6,000  Level Orlando TRACON
Tue 12:57:40 29.0167 -81.2667 240° Southwest 153 176 6,000  Level Orlando TRACON
Tue 12:58:40 28.9833 -81.3000 221° Southwest 155 178 6,000  Level Orlando TRACON
Tue 12:59:40 28.9500 -81.3500 233° Southwest 154 177 6,000  Level Orlando TRACON
Tue 13:00:40 28.9167 -81.3833 221° Southwest 153 176 6,000  Level Orlando TRACON
Tue 13:01:35 28.8833 -81.4167 221° Southwest 157 181 6,000  Level Orlando TRACON
Tue 13:02:35 28.8667 -81.4500 240° Southwest 152 175 6,000  Level Orlando TRACON
Tue 13:03:35 28.8333 -81.4833 221° Southwest 156 180 6,000 50 Level Orlando TRACON
Tue 13:04:36 28.8000 -81.5167 221° Southwest 159 183 6,100  Climbing Orlando TRACON
Tue 13:05:36 28.7500 -81.5333 196° South 152 175 6,000 -50 Descending Orlando TRACON
Tue 13:06:36 28.7167 -81.5333 180° South 152 175 6,000  Level Orlando TRACON
Tue 13:07:36 28.6667 -81.5333 180° South 155 178 6,000  Level Orlando TRACON
Tue 13:08:36 28.6333 -81.5333 180° South 154 177 6,000  Level Orlando TRACON
Tue 13:09:36 28.5833 -81.5333 180° South 151 174 6,000  Level Orlando TRACON
Tue 13:10:36 28.5500 -81.5333 180° South 152 175 6,000  Level Orlando TRACON
Tue 13:11:31 28.5000 -81.5500 196° South 153 176 6,000  Level Orlando TRACON
Tue 13:12:31 28.4667 -81.5667 204° Southwest 154 177 6,000  Level Orlando TRACON
Tue 13:13:31 28.4167 -81.5667 180° South 154 177 6,000  Level Orlando TRACON
Tue 13:14:31 28.3833 -81.5667 180° South 151 174 6,000  Level Orlando TRACON
Tue 13:15:32 28.3333 -81.5667 180° South 152 175 6,000  Level Orlando TRACON
Tue 13:16:32 28.3000 -81.5667 180° South 152 175 6,000  Level Orlando TRACON
Tue 13:17:32 28.2500 -81.5667 180° South 149 171 6,000  Level Orlando TRACON
Tue 13:18:32 28.2167 -81.5667 180° South 153 176 6,000  Level Orlando TRACON
Tue 13:19:38 28.1667 -81.5667 180° South 153 176 6,000  Level Orlando TRACON
Tue 13:20:38 28.1167 -81.5667 180° South 154 177 6,000  Level Orlando TRACON
Tue 13:21:14 28.0961 -81.5683 184° South 158 182 6,000  Level Miami Center
Tue 13:22:14 28.0522 -81.5689 181° South 158 182 6,000  Level Miami Center
Tue 13:23:14 28.0106 -81.5672 178° South 158 182 6,000  Level Miami Center
Tue 13:24:14 27.9669 -81.5653 178° South 158 182 6,000 100 Level Miami Center
Tue 13:25:14 27.9250 -81.5731 189° South 158 182 6,200 450 Climbing Miami Center
Tue 13:26:14 27.8892 -81.5761 184° South 158 182 6,900 450 Climbing Miami Center
Tue 13:27:14 27.8475 -81.5744 178° South 158 182 7,100 100 Climbing Miami Center
Tue 13:28:14 27.8058 -81.5797 186° South 158 182 7,100  Level Miami Center
Tue 13:29:14 27.7597 -81.5825 183° South 158 182 7,100  Level Miami Center
Tue 13:30:14 27.7181 -81.5833 181° South 158 182 7,100  Level Miami Center
Tue 13:31:14 27.6739 -81.5883 186° South 158 182 7,100  Level Miami Center
Tue 13:32:14 27.6300 -81.5936 186° South 158 182 7,100  Level Miami Center
Tue 13:33:14 27.5858 -81.5989 186° South 158 182 7,100 -50 Level Miami Center
Tue 13:34:14 27.5419 -81.6017 183° South 158 182 7,000 -50 Descending Miami Center
Tue 13:35:14 27.4981 -81.6047 184° South 158 182 7,000  Level Miami Center
Tue 13:36:14 27.4564 -81.6075 183° South 158 182 7,000  Level Miami Center
Tue 13:37:14 27.4122 -81.6103 183° South 158 182 7,000  Level Miami Center
Tue 13:38:14 27.3706 -81.6133 184° South 158 182 7,000  Level Miami Center
Tue 13:39:14 27.3264 -81.6186 186° South 158 182 7,000  Level Miami Center
Tue 13:40:14 27.2825 -81.6214 183° South 158 182 7,000  Level Miami Center
Tue 13:41:14 27.2386 -81.6242 183° South 158 182 7,000  Level Miami Center
Tue 13:42:14 27.1947 -81.6272 184° South 158 182 7,000  Level Miami Center
Tue 13:43:14 27.1508 -81.6322 186° South 158 182 7,000  Level Miami Center
Tue 13:44:14 27.1067 -81.6350 183° South 163 188 7,000  Level Miami Center
Tue 13:45:14 27.0650 -81.6381 184° South 163 188 7,000  Level Miami Center
Tue 13:46:14 27.0189 -81.6386 181° South 163 188 7,000  Level Miami Center
Tue 13:47:14 26.9756 -81.6275 167° South 158 182 7,000  Level Miami Center
Tue 13:48:14 26.9319 -81.6164 167° South 158 182 7,000  Level Miami Center
Tue 13:49:14 26.8906 -81.6053 167° South 158 182 7,000  Level Miami Center
Tue 13:51:00 26.8258 -81.6264 196° South  Level FlightAware Approximate
Tue 13:58:00 26.5644 -81.7000 180° South  Level FlightAware Approximate
Tue 13:59:00 26.5272 -81.7076 197° South  Level FlightAware Approximate
Tue 14:00:00 26.4902 -81.7179 186° South  Level FlightAware Approximate
Tue 14:01:00 26.4523 -81.7226 186° South  Level FlightAware Approximate
Tue 14:02:00 26.4143 -81.7274 186° South  Level FlightAware Approximate
Tue 14:03:00 26.3763 -81.7321 186° South  Level FlightAware Approximate
Tue 14:04:00 26.3384 -81.7369 186° South  Level FlightAware Approximate
Tue 14:05:00 26.3004 -81.7416 186° South  Level FlightAware Approximate
Tue 14:06:00 26.2624 -81.7464 186° South  Level FlightAware Approximate
Tue 14:07:00 26.2246 -81.7518 190° South  Level FlightAware Approximate
Tue 14:08:00 26.1870 -81.7593 190° South  Level FlightAware Approximate
Tue 14:09:00 26.1500 -81.7667 190° South  Level FlightAware Approximate
Tue 14:10:00 26.1524 -81.7756 190° South  Level Estimated

Login

Don't have an account? Register now (free) for customized features, flight alerts, and more!